sensor_id;sensor_type;location;lat;lon;timestamp;P1;durP1;ratioP1;P2;durP2;ratioP2
41141;SDS011;63666;52.284;20.890;2023-02-26T00:00:26;5.40;;;1.70;;
41141;SDS011;63666;52.284;20.890;2023-02-26T00:03:21;5.20;;;1.70;;
41141;SDS011;63666;52.284;20.890;2023-02-26T00:05:57;5.10;;;1.80;;
41141;SDS011;63666;52.284;20.890;2023-02-26T00:08:28;5.80;;;1.80;;
41141;SDS011;63666;52.284;20.890;2023-02-26T00:10:59;4.90;;;1.70;;
41141;SDS011;63666;52.284;20.890;2023-02-26T00:13:29;4.40;;;2.00;;
41141;SDS011;63666;52.284;20.890;2023-02-26T00:15:59;4.10;;;1.70;;
41141;SDS011;63666;52.284;20.890;2023-02-26T00:18:30;4.40;;;1.60;;
41141;SDS011;63666;52.284;20.890;2023-02-26T00:21:02;5.60;;;1.70;;
41141;SDS011;63666;52.284;20.890;2023-02-26T00:26:01;3.90;;;1.60;;
41141;SDS011;63666;52.284;20.890;2023-02-26T00:28:32;4.00;;;1.70;;
41141;SDS011;63666;52.284;20.890;2023-02-26T00:31:03;5.00;;;1.60;;
41141;SDS011;63666;52.284;20.890;2023-02-26T00:33:36;4.00;;;1.60;;
41141;SDS011;63666;52.284;20.890;2023-02-26T00:36:12;4.10;;;1.70;;
41141;SDS011;63666;52.284;20.890;2023-02-26T00:38:51;5.30;;;2.00;;
41141;SDS011;63666;52.284;20.890;2023-02-26T00:41:28;4.30;;;1.70;;
41141;SDS011;63666;52.284;20.890;2023-02-26T00:44:06;4.40;;;1.70;;
41141;SDS011;63666;52.284;20.890;2023-02-26T00:46:40;3.80;;;1.60;;
41141;SDS011;63666;52.284;20.890;2023-02-26T00:49:25;4.50;;;1.60;;
41141;SDS011;63666;52.284;20.890;2023-02-26T00:52:02;4.20;;;1.70;;
41141;SDS011;63666;52.284;20.890;2023-02-26T00:54:33;4.50;;;1.70;;
41141;SDS011;63666;52.284;20.890;2023-02-26T00:57:07;4.40;;;1.50;;
41141;SDS011;63666;52.284;20.890;2023-02-26T00:59:36;3.90;;;1.50;;
41141;SDS011;63666;52.284;20.890;2023-02-26T01:02:06;4.00;;;1.70;;
41141;SDS011;63666;52.284;20.890;2023-02-26T01:04:35;4.20;;;1.70;;
41141;SDS011;63666;52.284;20.890;2023-02-26T01:07:11;3.30;;;1.50;;
41141;SDS011;63666;52.284;20.890;2023-02-26T01:09:41;4.50;;;1.60;;
41141;SDS011;63666;52.284;20.890;2023-02-26T01:12:12;4.20;;;1.80;;
41141;SDS011;63666;52.284;20.890;2023-02-26T01:14:44;3.50;;;1.60;;
41141;SDS011;63666;52.284;20.890;2023-02-26T01:17:24;3.90;;;1.60;;
41141;SDS011;63666;52.284;20.890;2023-02-26T01:20:02;3.60;;;1.60;;
41141;SDS011;63666;52.284;20.890;2023-02-26T01:22:45;3.70;;;1.60;;
41141;SDS011;63666;52.284;20.890;2023-02-26T01:25:24;4.20;;;1.60;;
41141;SDS011;63666;52.284;20.890;2023-02-26T01:28:00;3.70;;;1.50;;
41141;SDS011;63666;52.284;20.890;2023-02-26T01:30:31;3.70;;;1.50;;
41141;SDS011;63666;52.284;20.890;2023-02-26T01:33:02;3.40;;;1.50;;
41141;SDS011;63666;52.284;20.890;2023-02-26T01:35:42;4.00;;;1.60;;
41141;SDS011;63666;52.284;20.890;2023-02-26T01:38:19;3.50;;;1.30;;
41141;SDS011;63666;52.284;20.890;2023-02-26T01:41:16;3.60;;;1.70;;
41141;SDS011;63666;52.284;20.890;2023-02-26T01:44:02;3.70;;;1.50;;
41141;SDS011;63666;52.284;20.890;2023-02-26T01:46:43;3.80;;;1.40;;
41141;SDS011;63666;52.284;20.890;2023-02-26T01:49:25;3.90;;;1.60;;
41141;SDS011;63666;52.284;20.890;2023-02-26T01:51:55;3.20;;;1.30;;
41141;SDS011;63666;52.284;20.890;2023-02-26T01:54:28;3.50;;;1.50;;
41141;SDS011;63666;52.284;20.890;2023-02-26T01:56:59;3.20;;;1.50;;
41141;SDS011;63666;52.284;20.890;2023-02-26T01:59:32;3.40;;;1.40;;
41141;SDS011;63666;52.284;20.890;2023-02-26T02:02:07;3.20;;;1.40;;
41141;SDS011;63666;52.284;20.890;2023-02-26T02:04:40;3.40;;;1.50;;
41141;SDS011;63666;52.284;20.890;2023-02-26T02:07:11;3.80;;;1.80;;
41141;SDS011;63666;52.284;20.890;2023-02-26T02:09:42;3.60;;;1.60;;
41141;SDS011;63666;52.284;20.890;2023-02-26T02:12:19;3.10;;;1.50;;
41141;SDS011;63666;52.284;20.890;2023-02-26T02:14:58;3.40;;;1.50;;
41141;SDS011;63666;52.284;20.890;2023-02-26T02:17:36;2.80;;;1.50;;
41141;SDS011;63666;52.284;20.890;2023-02-26T02:20:19;3.60;;;1.50;;
41141;SDS011;63666;52.284;20.890;2023-02-26T02:23:08;3.60;;;1.40;;
41141;SDS011;63666;52.284;20.890;2023-02-26T02:25:52;3.20;;;1.40;;
41141;SDS011;63666;52.284;20.890;2023-02-26T02:28:32;3.40;;;1.50;;
41141;SDS011;63666;52.284;20.890;2023-02-26T02:31:10;2.90;;;1.30;;
41141;SDS011;63666;52.284;20.890;2023-02-26T02:33:42;3.20;;;1.60;;
41141;SDS011;63666;52.284;20.890;2023-02-26T02:36:16;2.90;;;1.40;;
41141;SDS011;63666;52.284;20.890;2023-02-26T02:38:51;3.20;;;1.30;;
41141;SDS011;63666;52.284;20.890;2023-02-26T02:41:26;3.50;;;1.50;;
41141;SDS011;63666;52.284;20.890;2023-02-26T02:43:59;3.30;;;1.60;;
41141;SDS011;63666;52.284;20.890;2023-02-26T02:46:31;3.80;;;1.50;;
41141;SDS011;63666;52.284;20.890;2023-02-26T02:49:03;3.10;;;1.60;;
41141;SDS011;63666;52.284;20.890;2023-02-26T02:51:36;3.00;;;1.50;;
41141;SDS011;63666;52.284;20.890;2023-02-26T02:54:09;3.10;;;1.50;;
41141;SDS011;63666;52.284;20.890;2023-02-26T02:56:43;3.00;;;1.50;;
41141;SDS011;63666;52.284;20.890;2023-02-26T02:59:17;3.00;;;1.30;;
41141;SDS011;63666;52.284;20.890;2023-02-26T03:01:49;3.70;;;1.50;;
41141;SDS011;63666;52.284;20.890;2023-02-26T03:04:25;3.30;;;1.40;;
41141;SDS011;63666;52.284;20.890;2023-02-26T03:06:58;4.60;;;1.80;;
41141;SDS011;63666;52.284;20.890;2023-02-26T03:09:28;3.10;;;1.50;;
41141;SDS011;63666;52.284;20.890;2023-02-26T03:11:58;3.00;;;1.30;;
41141;SDS011;63666;52.284;20.890;2023-02-26T03:14:28;3.30;;;1.50;;
41141;SDS011;63666;52.284;20.890;2023-02-26T03:17:04;3.70;;;1.50;;
41141;SDS011;63666;52.284;20.890;2023-02-26T03:19:45;3.30;;;1.50;;
41141;SDS011;63666;52.284;20.890;2023-02-26T03:22:24;3.30;;;1.50;;
41141;SDS011;63666;52.284;20.890;2023-02-26T03:25:04;3.30;;;1.50;;
41141;SDS011;63666;52.284;20.890;2023-02-26T03:27:42;3.60;;;1.60;;
41141;SDS011;63666;52.284;20.890;2023-02-26T03:30:16;3.30;;;1.50;;
41141;SDS011;63666;52.284;20.890;2023-02-26T03:32:50;3.10;;;1.50;;
41141;SDS011;63666;52.284;20.890;2023-02-26T03:35:26;2.80;;;1.40;;
41141;SDS011;63666;52.284;20.890;2023-02-26T03:38:02;3.70;;;1.40;;
41141;SDS011;63666;52.284;20.890;2023-02-26T03:40:36;3.70;;;1.80;;
41141;SDS011;63666;52.284;20.890;2023-02-26T03:45:36;4.20;;;1.70;;
41141;SDS011;63666;52.284;20.890;2023-02-26T03:48:07;3.70;;;1.70;;
41141;SDS011;63666;52.284;20.890;2023-02-26T03:50:41;4.50;;;1.80;;
41141;SDS011;63666;52.284;20.890;2023-02-26T03:53:12;4.50;;;1.90;;
41141;SDS011;63666;52.284;20.890;2023-02-26T03:55:46;4.30;;;2.10;;
41141;SDS011;63666;52.284;20.890;2023-02-26T03:58:23;5.10;;;2.10;;
41141;SDS011;63666;52.284;20.890;2023-02-26T04:00:56;5.20;;;2.20;;
41141;SDS011;63666;52.284;20.890;2023-02-26T04:03:32;5.00;;;2.10;;
41141;SDS011;63666;52.284;20.890;2023-02-26T04:08:50;5.10;;;2.30;;
41141;SDS011;63666;52.284;20.890;2023-02-26T04:11:21;5.00;;;2.30;;
41141;SDS011;63666;52.284;20.890;2023-02-26T04:13:52;5.40;;;2.30;;
41141;SDS011;63666;52.284;20.890;2023-02-26T04:16:27;6.00;;;2.40;;
41141;SDS011;63666;52.284;20.890;2023-02-26T04:18:59;4.60;;;2.10;;
41141;SDS011;63666;52.284;20.890;2023-02-26T04:21:33;5.10;;;2.10;;
41141;SDS011;63666;52.284;20.890;2023-02-26T04:24:05;5.50;;;2.40;;
41141;SDS011;63666;52.284;20.890;2023-02-26T04:26:34;5.00;;;2.20;;
41141;SDS011;63666;52.284;20.890;2023-02-26T04:29:04;5.10;;;2.20;;
41141;SDS011;63666;52.284;20.890;2023-02-26T04:31:38;5.10;;;2.50;;
41141;SDS011;63666;52.284;20.890;2023-02-26T04:34:08;5.40;;;2.20;;
41141;SDS011;63666;52.284;20.890;2023-02-26T04:36:38;5.10;;;2.40;;
41141;SDS011;63666;52.284;20.890;2023-02-26T04:39:07;5.60;;;2.30;;
41141;SDS011;63666;52.284;20.890;2023-02-26T04:41:38;5.50;;;2.50;;
41141;SDS011;63666;52.284;20.890;2023-02-26T04:44:07;5.60;;;2.30;;
41141;SDS011;63666;52.284;20.890;2023-02-26T04:46:36;5.20;;;2.30;;
41141;SDS011;63666;52.284;20.890;2023-02-26T04:49:06;4.40;;;2.00;;
41141;SDS011;63666;52.284;20.890;2023-02-26T04:51:38;5.00;;;2.40;;
41141;SDS011;63666;52.284;20.890;2023-02-26T04:54:09;5.60;;;2.40;;
41141;SDS011;63666;52.284;20.890;2023-02-26T04:56:43;4.60;;;2.30;;
41141;SDS011;63666;52.284;20.890;2023-02-26T05:01:43;4.40;;;2.00;;
41141;SDS011;63666;52.284;20.890;2023-02-26T05:04:12;5.40;;;2.40;;
41141;SDS011;63666;52.284;20.890;2023-02-26T05:06:46;4.70;;;2.20;;
41141;SDS011;63666;52.284;20.890;2023-02-26T05:09:17;5.70;;;2.50;;
41141;SDS011;63666;52.284;20.890;2023-02-26T05:11:47;4.80;;;2.50;;
41141;SDS011;63666;52.284;20.890;2023-02-26T05:14:17;5.00;;;2.20;;
41141;SDS011;63666;52.284;20.890;2023-02-26T05:16:48;5.00;;;2.20;;
41141;SDS011;63666;52.284;20.890;2023-02-26T05:19:19;4.80;;;2.10;;
41141;SDS011;63666;52.284;20.890;2023-02-26T05:21:48;4.40;;;2.10;;
41141;SDS011;63666;52.284;20.890;2023-02-26T05:24:21;4.90;;;2.10;;
41141;SDS011;63666;52.284;20.890;2023-02-26T05:29:24;4.50;;;1.90;;
41141;SDS011;63666;52.284;20.890;2023-02-26T05:31:53;4.60;;;1.90;;
41141;SDS011;63666;52.284;20.890;2023-02-26T05:34:26;5.30;;;2.10;;
41141;SDS011;63666;52.284;20.890;2023-02-26T05:37:00;5.30;;;2.00;;
41141;SDS011;63666;52.284;20.890;2023-02-26T05:39:30;4.50;;;2.00;;
41141;SDS011;63666;52.284;20.890;2023-02-26T05:42:02;4.20;;;1.90;;
41141;SDS011;63666;52.284;20.890;2023-02-26T05:44:34;4.20;;;1.90;;
41141;SDS011;63666;52.284;20.890;2023-02-26T05:49:34;4.70;;;1.80;;
41141;SDS011;63666;52.284;20.890;2023-02-26T05:52:04;3.90;;;1.70;;
41141;SDS011;63666;52.284;20.890;2023-02-26T05:54:33;4.10;;;1.70;;
41141;SDS011;63666;52.284;20.890;2023-02-26T05:57:04;3.50;;;1.60;;
41141;SDS011;63666;52.284;20.890;2023-02-26T05:59:36;4.20;;;1.60;;
41141;SDS011;63666;52.284;20.890;2023-02-26T06:02:08;3.70;;;1.60;;
41141;SDS011;63666;52.284;20.890;2023-02-26T06:04:40;3.70;;;1.50;;
41141;SDS011;63666;52.284;20.890;2023-02-26T06:07:20;3.70;;;1.50;;
41141;SDS011;63666;52.284;20.890;2023-02-26T06:09:50;3.80;;;1.60;;
41141;SDS011;63666;52.284;20.890;2023-02-26T06:12:19;4.20;;;1.40;;
41141;SDS011;63666;52.284;20.890;2023-02-26T06:14:52;4.00;;;1.60;;
41141;SDS011;63666;52.284;20.890;2023-02-26T06:17:23;3.60;;;1.50;;
41141;SDS011;63666;52.284;20.890;2023-02-26T06:19:53;4.00;;;1.50;;
41141;SDS011;63666;52.284;20.890;2023-02-26T06:22:25;3.50;;;1.40;;
41141;SDS011;63666;52.284;20.890;2023-02-26T06:24:59;3.60;;;1.40;;
41141;SDS011;63666;52.284;20.890;2023-02-26T06:27:29;3.60;;;1.40;;
41141;SDS011;63666;52.284;20.890;2023-02-26T06:29:58;3.10;;;1.40;;
41141;SDS011;63666;52.284;20.890;2023-02-26T06:32:27;4.10;;;1.50;;
41141;SDS011;63666;52.284;20.890;2023-02-26T06:34:58;3.40;;;1.40;;
41141;SDS011;63666;52.284;20.890;2023-02-26T06:37:29;3.40;;;1.30;;
41141;SDS011;63666;52.284;20.890;2023-02-26T06:40:04;3.40;;;1.20;;
41141;SDS011;63666;52.284;20.890;2023-02-26T06:42:36;3.80;;;1.40;;
41141;SDS011;63666;52.284;20.890;2023-02-26T06:45:08;3.00;;;1.20;;
41141;SDS011;63666;52.284;20.890;2023-02-26T06:47:39;3.10;;;1.30;;
41141;SDS011;63666;52.284;20.890;2023-02-26T06:50:10;3.50;;;1.30;;
41141;SDS011;63666;52.284;20.890;2023-02-26T06:52:39;3.20;;;1.30;;
41141;SDS011;63666;52.284;20.890;2023-02-26T06:55:10;4.00;;;1.30;;
41141;SDS011;63666;52.284;20.890;2023-02-26T06:57:44;3.40;;;1.30;;
41141;SDS011;63666;52.284;20.890;2023-02-26T07:02:43;3.20;;;1.20;;
41141;SDS011;63666;52.284;20.890;2023-02-26T07:05:13;3.30;;;1.40;;
41141;SDS011;63666;52.284;20.890;2023-02-26T07:07:43;3.10;;;1.20;;
41141;SDS011;63666;52.284;20.890;2023-02-26T07:10:13;3.30;;;1.20;;
41141;SDS011;63666;52.284;20.890;2023-02-26T07:12:45;2.90;;;1.10;;
41141;SDS011;63666;52.284;20.890;2023-02-26T07:15:17;3.00;;;1.10;;
41141;SDS011;63666;52.284;20.890;2023-02-26T07:17:54;3.10;;;1.20;;
41141;SDS011;63666;52.284;20.890;2023-02-26T07:20:23;3.10;;;1.40;;
41141;SDS011;63666;52.284;20.890;2023-02-26T07:22:59;3.00;;;1.00;;
41141;SDS011;63666;52.284;20.890;2023-02-26T07:25:32;4.30;;;1.30;;
41141;SDS011;63666;52.284;20.890;2023-02-26T07:28:05;3.50;;;1.30;;
41141;SDS011;63666;52.284;20.890;2023-02-26T07:30:34;3.10;;;1.30;;
41141;SDS011;63666;52.284;20.890;2023-02-26T07:33:03;3.20;;;1.30;;
41141;SDS011;63666;52.284;20.890;2023-02-26T07:35:35;2.60;;;0.90;;
41141;SDS011;63666;52.284;20.890;2023-02-26T07:38:07;3.10;;;1.20;;
41141;SDS011;63666;52.284;20.890;2023-02-26T07:40:41;3.30;;;1.20;;
41141;SDS011;63666;52.284;20.890;2023-02-26T07:43:11;3.20;;;1.20;;
41141;SDS011;63666;52.284;20.890;2023-02-26T07:45:41;2.80;;;1.20;;
41141;SDS011;63666;52.284;20.890;2023-02-26T07:48:12;3.00;;;1.20;;
41141;SDS011;63666;52.284;20.890;2023-02-26T07:50:44;3.00;;;1.30;;
41141;SDS011;63666;52.284;20.890;2023-02-26T07:53:15;2.80;;;1.00;;
41141;SDS011;63666;52.284;20.890;2023-02-26T07:55:50;2.50;;;1.00;;
41141;SDS011;63666;52.284;20.890;2023-02-26T07:58:24;2.40;;;1.00;;
41141;SDS011;63666;52.284;20.890;2023-02-26T08:00:55;2.80;;;1.10;;
41141;SDS011;63666;52.284;20.890;2023-02-26T08:03:27;2.90;;;1.10;;
41141;SDS011;63666;52.284;20.890;2023-02-26T08:06:01;3.50;;;1.00;;
41141;SDS011;63666;52.284;20.890;2023-02-26T08:08:35;2.30;;;1.00;;
41141;SDS011;63666;52.284;20.890;2023-02-26T08:11:06;2.90;;;1.00;;
41141;SDS011;63666;52.284;20.890;2023-02-26T08:13:35;2.60;;;0.90;;
41141;SDS011;63666;52.284;20.890;2023-02-26T08:16:13;2.90;;;1.10;;
41141;SDS011;63666;52.284;20.890;2023-02-26T08:18:45;2.40;;;0.90;;
41141;SDS011;63666;52.284;20.890;2023-02-26T08:21:17;2.60;;;1.10;;
41141;SDS011;63666;52.284;20.890;2023-02-26T08:23:46;2.60;;;1.00;;
41141;SDS011;63666;52.284;20.890;2023-02-26T08:26:16;2.50;;;0.90;;
41141;SDS011;63666;52.284;20.890;2023-02-26T08:28:45;3.90;;;1.10;;
41141;SDS011;63666;52.284;20.890;2023-02-26T08:31:22;2.90;;;1.20;;
41141;SDS011;63666;52.284;20.890;2023-02-26T08:33:54;2.70;;;1.00;;
41141;SDS011;63666;52.284;20.890;2023-02-26T08:38:55;2.80;;;1.10;;
41141;SDS011;63666;52.284;20.890;2023-02-26T08:41:28;2.60;;;0.90;;
41141;SDS011;63666;52.284;20.890;2023-02-26T08:44:05;2.50;;;0.90;;
41141;SDS011;63666;52.284;20.890;2023-02-26T08:46:34;2.40;;;1.00;;
41141;SDS011;63666;52.284;20.890;2023-02-26T08:51:34;2.80;;;1.00;;
41141;SDS011;63666;52.284;20.890;2023-02-26T08:54:04;2.70;;;0.90;;
41141;SDS011;63666;52.284;20.890;2023-02-26T08:56:33;3.40;;;1.10;;
41141;SDS011;63666;52.284;20.890;2023-02-26T08:59:02;3.90;;;1.20;;
41141;SDS011;63666;52.284;20.890;2023-02-26T09:01:31;3.70;;;1.10;;
41141;SDS011;63666;52.284;20.890;2023-02-26T09:04:00;4.40;;;1.40;;
41141;SDS011;63666;52.284;20.890;2023-02-26T09:06:29;4.80;;;1.50;;
41141;SDS011;63666;52.284;20.890;2023-02-26T09:08:59;5.30;;;1.70;;
41141;SDS011;63666;52.284;20.890;2023-02-26T09:11:33;4.80;;;1.60;;
41141;SDS011;63666;52.284;20.890;2023-02-26T09:14:05;4.10;;;1.30;;
41141;SDS011;63666;52.284;20.890;2023-02-26T09:16:33;4.10;;;1.60;;
41141;SDS011;63666;52.284;20.890;2023-02-26T09:19:05;4.60;;;1.60;;
41141;SDS011;63666;52.284;20.890;2023-02-26T09:21:35;5.00;;;1.70;;
41141;SDS011;63666;52.284;20.890;2023-02-26T09:24:04;4.80;;;1.60;;
41141;SDS011;63666;52.284;20.890;2023-02-26T09:26:34;7.40;;;1.80;;
41141;SDS011;63666;52.284;20.890;2023-02-26T09:29:04;4.60;;;1.80;;
41141;SDS011;63666;52.284;20.890;2023-02-26T09:31:33;6.10;;;2.00;;
41141;SDS011;63666;52.284;20.890;2023-02-26T09:34:07;5.60;;;1.90;;
41141;SDS011;63666;52.284;20.890;2023-02-26T09:39:10;5.00;;;2.00;;
41141;SDS011;63666;52.284;20.890;2023-02-26T09:41:42;5.40;;;1.80;;
41141;SDS011;63666;52.284;20.890;2023-02-26T09:44:15;5.20;;;1.90;;
41141;SDS011;63666;52.284;20.890;2023-02-26T09:46:52;6.10;;;2.10;;
41141;SDS011;63666;52.284;20.890;2023-02-26T09:49:34;5.60;;;1.90;;
41141;SDS011;63666;52.284;20.890;2023-02-26T09:52:11;5.80;;;2.20;;
41141;SDS011;63666;52.284;20.890;2023-02-26T09:54:46;5.40;;;1.90;;
41141;SDS011;63666;52.284;20.890;2023-02-26T09:57:19;4.90;;;1.80;;
41141;SDS011;63666;52.284;20.890;2023-02-26T09:59:54;4.90;;;1.90;;
41141;SDS011;63666;52.284;20.890;2023-02-26T10:02:26;4.70;;;1.70;;
41141;SDS011;63666;52.284;20.890;2023-02-26T10:05:03;6.10;;;1.90;;
41141;SDS011;63666;52.284;20.890;2023-02-26T10:07:47;4.50;;;1.70;;
41141;SDS011;63666;52.284;20.890;2023-02-26T10:10:23;5.50;;;1.90;;
41141;SDS011;63666;52.284;20.890;2023-02-26T10:12:58;4.90;;;1.70;;
41141;SDS011;63666;52.284;20.890;2023-02-26T10:15:30;5.40;;;1.70;;
41141;SDS011;63666;52.284;20.890;2023-02-26T10:18:07;5.00;;;1.70;;
41141;SDS011;63666;52.284;20.890;2023-02-26T10:20:40;4.60;;;1.60;;
41141;SDS011;63666;52.284;20.890;2023-02-26T10:23:15;6.10;;;1.90;;
41141;SDS011;63666;52.284;20.890;2023-02-26T10:25:48;6.30;;;2.10;;
41141;SDS011;63666;52.284;20.890;2023-02-26T10:33:38;6.40;;;2.10;;
41141;SDS011;63666;52.284;20.890;2023-02-26T10:36:15;6.90;;;1.90;;
41141;SDS011;63666;52.284;20.890;2023-02-26T10:38:46;6.30;;;2.00;;
41141;SDS011;63666;52.284;20.890;2023-02-26T10:41:22;6.50;;;2.20;;
41141;SDS011;63666;52.284;20.890;2023-02-26T10:43:57;5.70;;;2.10;;
41141;SDS011;63666;52.284;20.890;2023-02-26T10:46:33;6.30;;;1.90;;
41141;SDS011;63666;52.284;20.890;2023-02-26T10:52:10;5.50;;;1.90;;
41141;SDS011;63666;52.284;20.890;2023-02-26T10:54:47;5.50;;;1.90;;
41141;SDS011;63666;52.284;20.890;2023-02-26T10:57:35;7.40;;;2.10;;
41141;SDS011;63666;52.284;20.890;2023-02-26T11:00:18;5.30;;;1.80;;
41141;SDS011;63666;52.284;20.890;2023-02-26T11:02:49;6.40;;;2.00;;
41141;SDS011;63666;52.284;20.890;2023-02-26T11:05:20;6.40;;;2.20;;
41141;SDS011;63666;52.284;20.890;2023-02-26T11:07:51;6.10;;;2.10;;
41141;SDS011;63666;52.284;20.890;2023-02-26T11:10:23;5.80;;;1.70;;
41141;SDS011;63666;52.284;20.890;2023-02-26T11:12:55;5.90;;;1.90;;
41141;SDS011;63666;52.284;20.890;2023-02-26T11:15:33;5.30;;;1.90;;
41141;SDS011;63666;52.284;20.890;2023-02-26T11:18:05;6.40;;;2.00;;
41141;SDS011;63666;52.284;20.890;2023-02-26T11:20:40;5.50;;;1.80;;
41141;SDS011;63666;52.284;20.890;2023-02-26T11:23:11;5.40;;;2.00;;
41141;SDS011;63666;52.284;20.890;2023-02-26T11:25:41;5.50;;;1.90;;
41141;SDS011;63666;52.284;20.890;2023-02-26T11:28:19;5.20;;;1.80;;
41141;SDS011;63666;52.284;20.890;2023-02-26T11:30:52;5.30;;;1.80;;
41141;SDS011;63666;52.284;20.890;2023-02-26T11:33:27;5.10;;;1.60;;
41141;SDS011;63666;52.284;20.890;2023-02-26T11:36:00;4.60;;;1.60;;
41141;SDS011;63666;52.284;20.890;2023-02-26T11:38:33;5.70;;;1.80;;
41141;SDS011;63666;52.284;20.890;2023-02-26T11:41:03;4.90;;;1.50;;
41141;SDS011;63666;52.284;20.890;2023-02-26T11:43:34;5.30;;;1.80;;
41141;SDS011;63666;52.284;20.890;2023-02-26T11:46:06;5.60;;;2.10;;
41141;SDS011;63666;52.284;20.890;2023-02-26T11:48:37;4.80;;;1.60;;
41141;SDS011;63666;52.284;20.890;2023-02-26T11:51:08;5.10;;;1.60;;
41141;SDS011;63666;52.284;20.890;2023-02-26T11:53:48;5.90;;;1.80;;
41141;SDS011;63666;52.284;20.890;2023-02-26T11:56:21;5.20;;;1.80;;
41141;SDS011;63666;52.284;20.890;2023-02-26T11:58:53;4.50;;;1.70;;
41141;SDS011;63666;52.284;20.890;2023-02-26T12:01:26;4.30;;;1.80;;
41141;SDS011;63666;52.284;20.890;2023-02-26T12:03:57;4.90;;;1.60;;
41141;SDS011;63666;52.284;20.890;2023-02-26T12:06:32;4.40;;;1.40;;
41141;SDS011;63666;52.284;20.890;2023-02-26T12:09:04;5.00;;;1.60;;
41141;SDS011;63666;52.284;20.890;2023-02-26T12:11:54;4.20;;;1.60;;
41141;SDS011;63666;52.284;20.890;2023-02-26T12:14:39;4.90;;;1.60;;
41141;SDS011;63666;52.284;20.890;2023-02-26T12:17:24;5.20;;;1.60;;
41141;SDS011;63666;52.284;20.890;2023-02-26T12:20:13;4.60;;;1.80;;
41141;SDS011;63666;52.284;20.890;2023-02-26T12:22:49;5.70;;;1.60;;
41141;SDS011;63666;52.284;20.890;2023-02-26T12:25:31;3.80;;;1.50;;
41141;SDS011;63666;52.284;20.890;2023-02-26T12:28:16;4.30;;;1.40;;
41141;SDS011;63666;52.284;20.890;2023-02-26T12:30:58;4.80;;;1.60;;
41141;SDS011;63666;52.284;20.890;2023-02-26T12:33:44;4.70;;;1.60;;
41141;SDS011;63666;52.284;20.890;2023-02-26T12:36:20;4.40;;;1.40;;
41141;SDS011;63666;52.284;20.890;2023-02-26T12:39:16;3.80;;;1.50;;
41141;SDS011;63666;52.284;20.890;2023-02-26T12:41:57;4.50;;;1.60;;
41141;SDS011;63666;52.284;20.890;2023-02-26T12:44:43;5.10;;;1.50;;
41141;SDS011;63666;52.284;20.890;2023-02-26T12:47:24;4.40;;;1.50;;
41141;SDS011;63666;52.284;20.890;2023-02-26T12:50:04;4.50;;;1.70;;
41141;SDS011;63666;52.284;20.890;2023-02-26T12:55:35;5.90;;;1.60;;
41141;SDS011;63666;52.284;20.890;2023-02-26T12:58:10;4.70;;;1.40;;
41141;SDS011;63666;52.284;20.890;2023-02-26T13:06:48;4.10;;;1.30;;
41141;SDS011;63666;52.284;20.890;2023-02-26T13:09:29;3.50;;;1.30;;
41141;SDS011;63666;52.284;20.890;2023-02-26T13:12:16;4.70;;;1.50;;
41141;SDS011;63666;52.284;20.890;2023-02-26T13:14:54;3.60;;;1.30;;
41141;SDS011;63666;52.284;20.890;2023-02-26T13:17:30;3.70;;;1.40;;
41141;SDS011;63666;52.284;20.890;2023-02-26T13:20:09;4.00;;;1.30;;
41141;SDS011;63666;52.284;20.890;2023-02-26T13:22:41;4.50;;;1.50;;
41141;SDS011;63666;52.284;20.890;2023-02-26T13:25:16;5.00;;;1.50;;
41141;SDS011;63666;52.284;20.890;2023-02-26T13:27:53;5.10;;;1.40;;
41141;SDS011;63666;52.284;20.890;2023-02-26T13:30:27;3.90;;;1.30;;
41141;SDS011;63666;52.284;20.890;2023-02-26T13:32:59;3.80;;;1.40;;
41141;SDS011;63666;52.284;20.890;2023-02-26T13:35:30;4.40;;;1.40;;
41141;SDS011;63666;52.284;20.890;2023-02-26T13:38:00;3.70;;;1.40;;
41141;SDS011;63666;52.284;20.890;2023-02-26T13:40:44;3.80;;;1.30;;
41141;SDS011;63666;52.284;20.890;2023-02-26T13:43:21;3.70;;;1.40;;
41141;SDS011;63666;52.284;20.890;2023-02-26T13:46:01;4.20;;;1.50;;
41141;SDS011;63666;52.284;20.890;2023-02-26T13:48:40;4.00;;;1.40;;
41141;SDS011;63666;52.284;20.890;2023-02-26T13:51:14;5.00;;;1.30;;
41141;SDS011;63666;52.284;20.890;2023-02-26T13:54:01;4.70;;;1.30;;
41141;SDS011;63666;52.284;20.890;2023-02-26T13:56:48;4.10;;;1.40;;
41141;SDS011;63666;52.284;20.890;2023-02-26T13:59:27;4.20;;;1.30;;
41141;SDS011;63666;52.284;20.890;2023-02-26T14:02:34;3.60;;;1.30;;
41141;SDS011;63666;52.284;20.890;2023-02-26T14:05:28;3.50;;;1.10;;
41141;SDS011;63666;52.284;20.890;2023-02-26T14:11:33;3.70;;;1.20;;
41141;SDS011;63666;52.284;20.890;2023-02-26T14:14:15;4.00;;;1.30;;
41141;SDS011;63666;52.284;20.890;2023-02-26T14:16:49;3.90;;;1.10;;
41141;SDS011;63666;52.284;20.890;2023-02-26T14:19:22;3.40;;;1.10;;
41141;SDS011;63666;52.284;20.890;2023-02-26T14:21:55;3.90;;;1.40;;
41141;SDS011;63666;52.284;20.890;2023-02-26T14:24:30;4.00;;;1.30;;
41141;SDS011;63666;52.284;20.890;2023-02-26T14:30:05;3.80;;;1.10;;
41141;SDS011;63666;52.284;20.890;2023-02-26T14:32:46;3.30;;;1.20;;
41141;SDS011;63666;52.284;20.890;2023-02-26T14:35:20;3.90;;;1.30;;
41141;SDS011;63666;52.284;20.890;2023-02-26T14:37:57;2.90;;;0.90;;
41141;SDS011;63666;52.284;20.890;2023-02-26T14:40:29;3.60;;;1.30;;
41141;SDS011;63666;52.284;20.890;2023-02-26T14:43:03;3.60;;;1.10;;
41141;SDS011;63666;52.284;20.890;2023-02-26T14:45:36;3.60;;;1.30;;
41141;SDS011;63666;52.284;20.890;2023-02-26T14:48:12;3.50;;;1.10;;
41141;SDS011;63666;52.284;20.890;2023-02-26T14:50:45;2.70;;;1.10;;
41141;SDS011;63666;52.284;20.890;2023-02-26T14:56:36;3.20;;;1.10;;
41141;SDS011;63666;52.284;20.890;2023-02-26T15:02:14;3.90;;;1.30;;
41141;SDS011;63666;52.284;20.890;2023-02-26T15:07:32;3.60;;;1.20;;
41141;SDS011;63666;52.284;20.890;2023-02-26T15:10:12;3.70;;;1.10;;
41141;SDS011;63666;52.284;20.890;2023-02-26T15:15:49;4.00;;;1.40;;
41141;SDS011;63666;52.284;20.890;2023-02-26T15:18:38;4.00;;;1.50;;
41141;SDS011;63666;52.284;20.890;2023-02-26T15:21:29;4.10;;;1.20;;
41141;SDS011;63666;52.284;20.890;2023-02-26T15:24:04;3.50;;;1.30;;
41141;SDS011;63666;52.284;20.890;2023-02-26T15:26:39;3.80;;;1.50;;
41141;SDS011;63666;52.284;20.890;2023-02-26T15:29:12;4.20;;;1.30;;
41141;SDS011;63666;52.284;20.890;2023-02-26T15:31:46;3.70;;;1.50;;
41141;SDS011;63666;52.284;20.890;2023-02-26T15:34:21;3.40;;;1.30;;
41141;SDS011;63666;52.284;20.890;2023-02-26T15:36:50;3.80;;;1.30;;
41141;SDS011;63666;52.284;20.890;2023-02-26T15:39:21;3.80;;;1.30;;
41141;SDS011;63666;52.284;20.890;2023-02-26T15:41:53;3.60;;;1.40;;
41141;SDS011;63666;52.284;20.890;2023-02-26T15:44:30;3.90;;;1.40;;
41141;SDS011;63666;52.284;20.890;2023-02-26T15:47:12;3.70;;;1.40;;
41141;SDS011;63666;52.284;20.890;2023-02-26T15:49:43;5.20;;;1.70;;
41141;SDS011;63666;52.284;20.890;2023-02-26T15:52:16;3.80;;;1.30;;
41141;SDS011;63666;52.284;20.890;2023-02-26T15:54:48;4.10;;;1.40;;
41141;SDS011;63666;52.284;20.890;2023-02-26T15:57:19;3.70;;;1.30;;
41141;SDS011;63666;52.284;20.890;2023-02-26T15:59:53;4.10;;;1.40;;
41141;SDS011;63666;52.284;20.890;2023-02-26T16:02:33;3.40;;;1.30;;
41141;SDS011;63666;52.284;20.890;2023-02-26T16:05:10;3.60;;;1.50;;
41141;SDS011;63666;52.284;20.890;2023-02-26T16:07:46;3.80;;;1.50;;
41141;SDS011;63666;52.284;20.890;2023-02-26T16:12:57;3.80;;;1.50;;
41141;SDS011;63666;52.284;20.890;2023-02-26T16:15:30;3.90;;;1.50;;
41141;SDS011;63666;52.284;20.890;2023-02-26T16:18:01;4.00;;;1.50;;